createdAt,value
2022-09-11T00:00:29.793Z,97500.88
2022-09-11T00:02:56.254Z,97489.41
2022-09-11T00:05:22.890Z,97500.00
2022-09-11T00:07:49.331Z,97493.81
2022-09-11T00:10:16.486Z,97497.84
2022-09-11T00:12:43.337Z,97496.63
2022-09-11T00:15:12.481Z,97498.84
2022-09-11T00:17:39.669Z,97502.88
2022-09-11T00:20:06.219Z,97517.28
2022-09-11T00:22:32.673Z,97515.75
2022-09-11T00:24:59.339Z,97510.34
2022-09-11T00:27:25.791Z,97502.53
2022-09-11T00:29:52.250Z,97502.69
2022-09-11T00:32:18.719Z,97504.09
2022-09-11T00:34:46.851Z,97510.03
2022-09-11T00:37:13.454Z,97506.59
2022-09-11T00:39:39.939Z,97508.13
2022-09-11T00:42:06.461Z,97516.94
2022-09-11T00:44:33.802Z,97519.47
2022-09-11T00:47:03.050Z,97515.78
2022-09-11T00:49:34.846Z,97523.53
2022-09-11T00:52:12.159Z,97518.78
2022-09-11T00:54:44.493Z,97518.78
2022-09-11T00:57:11.129Z,97519.13
2022-09-11T00:59:39.768Z,97519.81
2022-09-11T01:02:08.598Z,97516.09
2022-09-11T01:04:35.157Z,97516.75
2022-09-11T01:07:02.566Z,97508.69
2022-09-11T01:09:30.447Z,97500.56
2022-09-11T01:12:00.122Z,97502.94
2022-09-11T01:14:34.582Z,97505.28
2022-09-11T01:17:10.564Z,97505.13
2022-09-11T01:19:55.367Z,97503.94
2022-09-11T01:22:40.453Z,97495.50
2022-09-11T01:25:07.013Z,97500.72
2022-09-11T01:27:50.725Z,97495.50
2022-09-11T01:30:24.578Z,97498.19
2022-09-11T01:33:11.240Z,97500.56
2022-09-11T01:35:57.325Z,97500.91
2022-09-11T01:38:28.496Z,97501.06
2022-09-11T01:41:09.566Z,97497.19
2022-09-11T01:43:38.228Z,97501.25
2022-09-11T01:46:07.221Z,97493.28
2022-09-11T01:48:44.854Z,97487.22
2022-09-11T01:51:15.595Z,97493.97
2022-09-11T01:53:48.109Z,97498.53
2022-09-11T01:56:20.222Z,97492.97
2022-09-11T01:58:47.989Z,97490.75
2022-09-11T02:01:27.373Z,97484.00
2022-09-11T02:04:10.574Z,97488.06
2022-09-11T02:06:42.459Z,97491.09
2022-09-11T02:09:11.098Z,97488.56
2022-09-11T02:11:43.435Z,97484.19
2022-09-11T02:14:10.590Z,97477.97
2022-09-11T02:16:56.201Z,97482.66
2022-09-11T02:19:28.079Z,97469.84
2022-09-11T02:21:54.697Z,97474.91
2022-09-11T02:24:22.747Z,97472.19
2022-09-11T02:26:54.966Z,97466.44
2022-09-11T02:29:21.474Z,97466.63
2022-09-11T02:31:48.858Z,97470.84
2022-09-11T02:34:15.539Z,97480.97
2022-09-11T02:37:03.914Z,97472.19
2022-09-11T02:39:41.349Z,97476.75
2022-09-11T02:42:20.790Z,97468.81
2022-09-11T02:45:02.177Z,97472.84
2022-09-11T02:47:48.205Z,97468.16
2022-09-11T02:50:36.537Z,97467.81
2022-09-11T02:53:02.999Z,97463.59
2022-09-11T02:55:32.516Z,97465.59
2022-09-11T02:58:02.600Z,97469.50
2022-09-11T03:00:30.992Z,97478.28
2022-09-11T03:02:57.697Z,97474.38
2022-09-11T03:05:24.297Z,97472.19
2022-09-11T03:07:50.989Z,97476.94
2022-09-11T03:10:17.665Z,97477.94
2022-09-11T03:12:44.146Z,97467.81
2022-09-11T03:15:11.106Z,97477.63
2022-09-11T03:17:37.689Z,97475.25
2022-09-11T03:20:04.722Z,97475.91
2022-09-11T03:22:31.203Z,97491.06
2022-09-11T03:24:58.470Z,97479.59
2022-09-11T03:27:28.117Z,97484.50
2022-09-11T03:29:56.205Z,97484.00
2022-09-11T03:32:23.266Z,97488.41
2022-09-11T03:34:49.684Z,97481.66
2022-09-11T03:37:16.239Z,97485.03
2022-09-11T03:39:43.464Z,97480.63
2022-09-11T03:42:12.618Z,97485.69
2022-09-11T03:44:39.553Z,97473.22
2022-09-11T03:47:06.092Z,97478.97
2022-09-11T03:49:32.666Z,97483.00
2022-09-11T03:51:59.889Z,97483.00
2022-09-11T03:54:28.042Z,97490.13
2022-09-11T03:56:55.433Z,97489.25
2022-09-11T03:59:21.867Z,97490.63
2022-09-11T04:01:50.732Z,97492.78
2022-09-11T04:04:17.678Z,97501.94
2022-09-11T04:06:45.378Z,97499.22
2022-09-11T04:09:12.413Z,97493.66
2022-09-11T04:11:40.053Z,97493.81
2022-09-11T04:14:13.426Z,97490.78
2022-09-11T04:16:41.565Z,97493.13
2022-09-11T04:19:09.518Z,97485.31
2022-09-11T04:21:36.075Z,97489.56
2022-09-11T04:24:02.720Z,97488.03
2022-09-11T04:26:30.903Z,97488.34
2022-09-11T04:29:07.544Z,97494.41
2022-09-11T04:31:35.989Z,97493.25
2022-09-11T04:34:02.788Z,97485.28
2022-09-11T04:36:32.493Z,97484.22
2022-09-11T04:39:00.441Z,97497.13
2022-09-11T04:41:27.840Z,97491.00
2022-09-11T04:43:58.260Z,97479.06
2022-09-11T04:46:27.795Z,97477.16
2022-09-11T04:49:02.224Z,97484.97
2022-09-11T04:51:34.765Z,97473.13
2022-09-11T04:54:01.934Z,97469.38
2022-09-11T04:56:40.034Z,97477.56
2022-09-11T04:59:15.961Z,97486.34
2022-09-11T05:01:48.115Z,97485.00
2022-09-11T05:04:16.981Z,97478.41
2022-09-11T05:06:48.203Z,97487.19
2022-09-11T05:09:17.291Z,97494.13
2022-09-11T05:11:45.944Z,97490.38
2022-09-11T05:14:12.731Z,97477.19
2022-09-11T05:16:41.376Z,97487.19
2022-09-11T05:19:09.825Z,97490.25
2022-09-11T05:21:38.014Z,97485.81
2022-09-11T05:24:04.582Z,97491.75
2022-09-11T05:26:34.875Z,97494.28
2022-09-11T05:29:09.756Z,97491.59
2022-09-11T05:31:42.433Z,97496.97
2022-09-11T05:34:09.564Z,97491.09
2022-09-11T05:36:37.000Z,97491.97
2022-09-11T05:39:04.321Z,97499.88
2022-09-11T05:41:32.629Z,97493.78
2022-09-11T05:43:59.344Z,97490.41
2022-09-11T05:46:26.034Z,97505.78
2022-09-11T05:48:56.991Z,97501.22
2022-09-11T05:51:23.693Z,97508.47
2022-09-11T05:53:54.635Z,97511.69
2022-09-11T05:56:22.962Z,97510.78
2022-09-11T05:58:52.216Z,97510.53
2022-09-11T06:01:22.059Z,97514.66
2022-09-11T06:03:56.617Z,97521.75
2022-09-11T06:06:25.117Z,97523.47
2022-09-11T06:08:53.386Z,97527.88
2022-09-11T06:11:21.593Z,97513.97
2022-09-11T06:13:49.151Z,97496.00
2022-09-11T06:16:19.534Z,97491.88
2022-09-11T06:18:49.164Z,97486.97
2022-09-11T06:21:21.354Z,97494.25
2022-09-11T06:23:54.927Z,97489.28
2022-09-11T06:26:25.021Z,97489.47
2022-09-11T06:28:52.879Z,97488.84
2022-09-11T06:31:21.406Z,97496.59
2022-09-11T06:33:49.206Z,97501.16
2022-09-11T06:36:18.133Z,97500.34
2022-09-11T06:38:46.193Z,97503.72
2022-09-11T06:41:15.773Z,97498.78
2022-09-11T06:43:44.101Z,97501.97
2022-09-11T06:46:16.008Z,97494.94
2022-09-11T06:48:43.224Z,97505.16
2022-09-11T06:51:11.419Z,97502.50
2022-09-11T06:53:38.984Z,97496.13
2022-09-11T06:56:12.217Z,97490.22
2022-09-11T06:58:41.031Z,97497.06
2022-09-11T07:01:17.449Z,97491.69
2022-09-11T07:03:46.833Z,97489.03
2022-09-11T07:06:19.051Z,97481.38
2022-09-11T07:08:52.204Z,97491.94
2022-09-11T07:11:19.687Z,97482.56
2022-09-11T07:13:47.502Z,97489.25
2022-09-11T07:16:16.464Z,97483.81
2022-09-11T07:18:49.181Z,97486.16
2022-09-11T07:21:21.496Z,97491.63
2022-09-11T07:23:54.053Z,97497.31
2022-09-11T07:26:22.266Z,97504.19
2022-09-11T07:28:52.714Z,97503.16
2022-09-11T07:31:21.282Z,97502.19
2022-09-11T07:33:49.031Z,97504.13
2022-09-11T07:36:17.244Z,97500.09
2022-09-11T07:38:44.690Z,97508.78
2022-09-11T07:41:14.162Z,97504.56
2022-09-11T07:43:42.016Z,97511.66
2022-09-11T07:46:10.077Z,97500.97
2022-09-11T07:48:36.572Z,97508.47
2022-09-11T07:51:04.412Z,97511.72
2022-09-11T07:53:35.190Z,97510.91
2022-09-11T07:56:03.699Z,97519.00
2022-09-11T07:58:34.139Z,97514.44
2022-09-11T08:01:02.510Z,97507.50
2022-09-11T08:03:31.069Z,97514.22
2022-09-11T08:05:58.544Z,97515.09
2022-09-11T08:08:26.122Z,97514.50
2022-09-11T08:10:52.641Z,97509.59
2022-09-11T08:13:20.156Z,97518.03
2022-09-11T08:15:50.904Z,97513.78
2022-09-11T08:18:19.495Z,97516.31
2022-09-11T08:20:46.017Z,97522.63
2022-09-11T08:23:13.120Z,97512.34
2022-09-11T08:25:39.659Z,97514.16
2022-09-11T08:28:07.768Z,97516.25
2022-09-11T08:30:38.190Z,97519.97
2022-09-11T08:33:06.145Z,97520.91
2022-09-11T08:35:35.490Z,97524.47
2022-09-11T08:38:03.185Z,97524.09
2022-09-11T08:40:30.627Z,97523.13
2022-09-11T08:43:01.926Z,97521.41
2022-09-11T08:45:31.542Z,97521.75
2022-09-11T08:47:59.167Z,97516.22
2022-09-11T08:50:33.774Z,97507.88
2022-09-11T08:53:01.211Z,97509.78
2022-09-11T08:55:41.246Z,97509.78
2022-09-11T08:58:27.225Z,97517.16
2022-09-11T09:00:53.750Z,97511.47
2022-09-11T09:03:23.921Z,97508.06
2022-09-11T09:05:55.469Z,97518.66
2022-09-11T09:08:25.261Z,97519.16
2022-09-11T09:10:53.173Z,97510.72
2022-09-11T09:13:47.494Z,97505.28
2022-09-11T09:16:13.927Z,97496.31
2022-09-11T09:18:43.977Z,97504.91
2022-09-11T09:21:31.312Z,97501.59
2022-09-11T09:24:01.158Z,97504.56
2022-09-11T09:26:39.953Z,97508.25
2022-09-11T09:29:09.723Z,97508.56
2022-09-11T09:31:38.989Z,97502.69
2022-09-11T09:34:15.470Z,97500.50
2022-09-11T09:36:45.440Z,97499.19
2022-09-11T09:39:16.398Z,97497.78
2022-09-11T09:41:53.840Z,97500.75
2022-09-11T09:44:34.731Z,97491.94
2022-09-11T09:47:01.281Z,97489.91
2022-09-11T09:49:30.399Z,97503.00
2022-09-11T09:52:03.511Z,97498.97
2022-09-11T09:54:33.978Z,97487.50
2022-09-11T09:57:02.510Z,97485.44
2022-09-11T09:59:39.761Z,97479.53
2022-09-11T10:02:06.419Z,97484.66
2022-09-11T10:04:33.098Z,97480.34
2022-09-11T10:07:10.611Z,97464.16
2022-09-11T10:09:45.419Z,97474.81
2022-09-11T10:12:32.191Z,97475.03
2022-09-11T10:15:00.145Z,97485.66
2022-09-11T10:17:26.535Z,97479.34
2022-09-11T10:19:55.158Z,97479.19
2022-09-11T10:22:24.582Z,97474.38
2022-09-11T10:25:00.525Z,97470.38
2022-09-11T10:27:29.023Z,97467.16
2022-09-11T10:29:55.708Z,97464.06
2022-09-11T10:32:24.603Z,97458.25
2022-09-11T10:34:51.569Z,97458.03
2022-09-11T10:37:29.854Z,97450.84
2022-09-11T10:40:04.399Z,97445.16
2022-09-11T10:42:33.346Z,97449.38
2022-09-11T10:45:18.688Z,97438.31
2022-09-11T10:47:51.168Z,97438.56
2022-09-11T10:50:17.691Z,97444.97
2022-09-11T10:52:51.608Z,97428.81
2022-09-11T10:55:19.683Z,97432.78
2022-09-11T10:57:50.312Z,97429.50
2022-09-11T11:00:22.768Z,97435.44
2022-09-11T11:03:05.160Z,97439.97
2022-09-11T11:05:50.328Z,97446.59
2022-09-11T11:08:22.975Z,97450.47
2022-09-11T11:11:04.775Z,97442.56
2022-09-11T11:13:42.500Z,97454.53
2022-09-11T11:16:21.218Z,97440.22
2022-09-11T11:19:02.354Z,97448.19
2022-09-11T11:21:47.743Z,97439.78
2022-09-11T11:24:17.980Z,97443.94
2022-09-11T11:26:44.398Z,97441.63
2022-09-11T11:29:28.457Z,97441.91
2022-09-11T11:32:02.586Z,97445.97
2022-09-11T11:34:35.176Z,97438.97
2022-09-11T11:37:05.806Z,97430.25
2022-09-11T11:39:37.012Z,97433.69
2022-09-11T11:42:15.857Z,97434.13
2022-09-11T11:44:42.698Z,97437.91
2022-09-11T11:47:10.886Z,97427.38
2022-09-11T11:49:46.874Z,97439.44
2022-09-11T11:52:23.064Z,97422.88
2022-09-11T11:54:54.338Z,97430.03
2022-09-11T11:57:22.472Z,97429.59
2022-09-11T11:59:48.865Z,97431.59
2022-09-11T12:02:24.795Z,97427.25
2022-09-11T12:04:54.050Z,97431.78
2022-09-11T12:07:30.111Z,97424.00
2022-09-11T12:09:58.723Z,97436.59
2022-09-11T12:12:28.015Z,97439.66
2022-09-11T12:14:56.308Z,97445.44
2022-09-11T12:17:33.299Z,97450.59
2022-09-11T12:20:12.019Z,97446.31
2022-09-11T12:22:45.797Z,97436.16
2022-09-11T12:25:21.452Z,97440.13
2022-09-11T12:27:49.093Z,97445.50
2022-09-11T12:30:18.616Z,97452.91
2022-09-11T12:32:46.134Z,97446.56
2022-09-11T12:35:20.054Z,97445.00
2022-09-11T12:38:06.787Z,97444.88
2022-09-11T12:40:40.102Z,97446.84
2022-09-11T12:43:26.295Z,97443.16
2022-09-11T12:45:53.025Z,97445.13
2022-09-11T12:48:22.187Z,97444.09
2022-09-11T12:50:56.252Z,97440.22
2022-09-11T12:53:27.858Z,97440.69
2022-09-11T12:55:54.260Z,97442.97
2022-09-11T12:58:20.706Z,97438.06
2022-09-11T13:01:10.356Z,97426.97
2022-09-11T13:03:38.702Z,97441.59
2022-09-11T13:06:10.165Z,97433.00
2022-09-11T13:08:38.841Z,97443.88
2022-09-11T13:11:25.568Z,97432.09
2022-09-11T13:13:52.230Z,97441.41
2022-09-11T13:16:26.463Z,97437.09
2022-09-11T13:19:08.258Z,97437.25
2022-09-11T13:21:49.378Z,97432.28
2022-09-11T13:24:23.869Z,97438.22
2022-09-11T13:26:55.212Z,97428.72
2022-09-11T13:29:26.565Z,97426.75
2022-09-11T13:31:53.852Z,97427.94
2022-09-11T13:34:23.383Z,97419.84
2022-09-11T13:36:54.605Z,97427.28
2022-09-11T13:39:23.717Z,97417.06
2022-09-11T13:41:52.981Z,97417.16
2022-09-11T13:44:28.449Z,97418.84
2022-09-11T13:46:56.197Z,97423.19
2022-09-11T13:49:37.099Z,97412.75
2022-09-11T13:52:05.724Z,97419.19
2022-09-11T13:54:34.659Z,97418.84
2022-09-11T13:57:01.496Z,97422.22
2022-09-11T13:59:44.551Z,97421.38
2022-09-11T14:02:20.304Z,97417.31
2022-09-11T14:04:49.511Z,97419.19
2022-09-11T14:07:17.602Z,97419.03
2022-09-11T14:09:47.777Z,97402.25
2022-09-11T14:12:14.600Z,97421.72
2022-09-11T14:14:46.943Z,97413.66
2022-09-11T14:17:13.999Z,97415.94
2022-09-11T14:19:42.617Z,97415.84
2022-09-11T14:22:20.295Z,97411.19
2022-09-11T14:24:57.382Z,97406.78
2022-09-11T14:27:34.381Z,97410.00
2022-09-11T14:30:00.870Z,97405.00
2022-09-11T14:32:31.989Z,97408.00
2022-09-11T14:34:58.695Z,97417.53
2022-09-11T14:37:27.012Z,97405.09
2022-09-11T14:39:56.705Z,97403.09
2022-09-11T14:42:25.546Z,97399.94
2022-09-11T14:44:52.038Z,97404.84
2022-09-11T14:47:25.741Z,97402.34
2022-09-11T14:49:55.945Z,97403.84
2022-09-11T14:52:23.942Z,97391.53
2022-09-11T14:54:50.358Z,97393.03
2022-09-11T14:57:20.865Z,97404.38
2022-09-11T14:59:47.654Z,97398.78
2022-09-11T15:02:15.730Z,97400.75
2022-09-11T15:04:42.270Z,97402.56
2022-09-11T15:07:10.282Z,97406.69
2022-09-11T15:09:38.175Z,97403.00
2022-09-11T15:12:05.113Z,97410.97
2022-09-11T15:14:55.147Z,97411.97
2022-09-11T15:17:20.183Z,97415.53
2022-09-11T15:19:47.729Z,97422.25
2022-09-11T15:22:14.260Z,97420.25
2022-09-11T15:24:41.609Z,97424.66
2022-09-11T15:27:10.249Z,97428.50
2022-09-11T15:29:39.414Z,97429.63
2022-09-11T15:32:07.455Z,97434.00
2022-09-11T15:34:34.466Z,97441.13
2022-09-11T15:37:00.930Z,97433.22
2022-09-11T15:39:28.058Z,97444.50
2022-09-11T15:41:57.467Z,97440.06
2022-09-11T15:44:25.445Z,97441.59
2022-09-11T15:46:53.106Z,97440.84
2022-09-11T15:49:23.453Z,97450.88
2022-09-11T15:51:50.651Z,97451.19
2022-09-11T15:54:17.558Z,97448.09
2022-09-11T15:56:44.716Z,97446.00
2022-09-11T15:59:11.893Z,97449.53
2022-09-11T16:01:39.359Z,97439.72
2022-09-11T16:04:07.182Z,97448.34
2022-09-11T16:06:35.829Z,97443.44
2022-09-11T16:09:06.258Z,97441.59
2022-09-11T16:11:33.097Z,97455.97
2022-09-11T16:13:59.878Z,97453.28
2022-09-11T16:16:26.958Z,97455.69
2022-09-11T16:18:54.007Z,97461.31
2022-09-11T16:21:21.157Z,97453.31
2022-09-11T16:23:52.724Z,97455.31
2022-09-11T16:26:21.339Z,97468.13
2022-09-11T16:28:48.242Z,97458.34
2022-09-11T16:31:15.314Z,97462.44
2022-09-11T16:33:47.887Z,97463.25
2022-09-11T16:36:17.390Z,97458.72
2022-09-11T16:38:44.449Z,97466.47
2022-09-11T16:41:12.410Z,97460.97
2022-09-11T16:43:40.196Z,97471.09
2022-09-11T16:46:07.159Z,97472.97
2022-09-11T16:48:33.667Z,97479.22
2022-09-11T16:51:00.721Z,97484.47
2022-09-11T16:53:34.294Z,97489.59
2022-09-11T16:56:03.514Z,97480.25
2022-09-11T16:58:30.007Z,97482.28
2022-09-11T17:00:56.577Z,97482.28
2022-09-11T17:03:23.011Z,97482.50
2022-09-11T17:05:50.686Z,97483.44
2022-09-11T17:08:17.774Z,97486.38
2022-09-11T17:10:45.249Z,97483.06
2022-09-11T17:13:12.463Z,97487.50
2022-09-11T17:15:40.373Z,97489.03
2022-09-11T17:18:06.862Z,97494.91
2022-09-11T17:20:33.518Z,97497.84
2022-09-11T17:23:00.122Z,97498.06
2022-09-11T17:25:26.753Z,97507.94
2022-09-11T17:27:53.167Z,97507.94
2022-09-11T17:30:21.322Z,97504.34
2022-09-11T17:32:47.827Z,97505.00
2022-09-11T17:35:14.478Z,97502.88
2022-09-11T17:37:40.971Z,97501.63
2022-09-11T17:40:07.893Z,97508.75
2022-09-11T17:42:34.398Z,97515.47
2022-09-11T17:45:02.331Z,97509.19
2022-09-11T17:47:33.098Z,97520.53
2022-09-11T17:50:02.537Z,97513.38
2022-09-11T17:52:31.274Z,97510.44
2022-09-11T17:54:57.717Z,97522.19
2022-09-11T17:57:25.504Z,97525.28
2022-09-11T17:59:51.994Z,97529.31
2022-09-11T18:02:19.656Z,97525.34
2022-09-11T18:04:49.277Z,97532.66
2022-09-11T18:07:16.004Z,97538.97
2022-09-11T18:09:42.518Z,97542.72
2022-09-11T18:12:09.955Z,97549.84
2022-09-11T18:14:37.390Z,97547.31
2022-09-11T18:17:03.868Z,97556.91
2022-09-11T18:19:30.298Z,97559.19
2022-09-11T18:21:57.006Z,97571.06
2022-09-11T18:24:24.055Z,97563.53
2022-09-11T18:26:51.613Z,97563.28
2022-09-11T18:29:20.090Z,97567.16
2022-09-11T18:31:49.874Z,97569.81
2022-09-11T18:34:18.386Z,97565.44
2022-09-11T18:36:45.195Z,97575.41
2022-09-11T18:39:12.982Z,97567.56
2022-09-11T18:41:39.592Z,97576.22
2022-09-11T18:44:10.889Z,97580.56
2022-09-11T18:46:37.531Z,97589.69
2022-09-11T18:49:04.486Z,97588.88
2022-09-11T18:51:31.157Z,97587.63
2022-09-11T18:53:59.510Z,97594.91
2022-09-11T18:56:28.417Z,97586.59
2022-09-11T18:58:56.084Z,97594.00
2022-09-11T19:01:24.144Z,97598.09
2022-09-11T19:03:52.330Z,97588.31
2022-09-11T19:06:20.283Z,97590.66
2022-09-11T19:08:47.538Z,97590.66
2022-09-11T19:11:19.208Z,97594.00
2022-09-11T19:13:45.960Z,97598.03
2022-09-11T19:16:12.952Z,97597.41
2022-09-11T19:18:39.545Z,97602.81
2022-09-11T19:21:13.475Z,97604.84
2022-09-11T19:23:41.139Z,97609.00
2022-09-11T19:26:11.047Z,97609.00
2022-09-11T19:28:38.282Z,97608.81
2022-09-11T19:31:05.477Z,97620.22
2022-09-11T19:33:33.038Z,97609.69
2022-09-11T19:36:03.521Z,97613.72
2022-09-11T19:38:30.481Z,97605.94
2022-09-11T19:41:00.298Z,97609.97
2022-09-11T19:43:31.159Z,97608.97
2022-09-11T19:46:04.479Z,97610.59
2022-09-11T19:48:31.551Z,97610.41
2022-09-11T19:50:58.135Z,97611.59
2022-09-11T19:53:24.596Z,97606.66
2022-09-11T19:55:54.519Z,97610.56
2022-09-11T19:58:24.052Z,97612.72
2022-09-11T20:00:50.936Z,97611.47
2022-09-11T20:03:18.407Z,97619.44
2022-09-11T20:05:45.659Z,97616.06
2022-09-11T20:08:16.423Z,97613.41
2022-09-11T20:10:45.392Z,97612.94
2022-09-11T20:13:12.195Z,97618.94
2022-09-11T20:15:39.077Z,97619.34
2022-09-11T20:18:07.409Z,97617.63
2022-09-11T20:20:37.364Z,97616.84
2022-09-11T20:23:04.523Z,97613.41
2022-09-11T20:25:31.349Z,97617.38
2022-09-11T20:28:00.961Z,97620.56
2022-09-11T20:30:30.057Z,97620.63
2022-09-11T20:32:56.559Z,97617.91
2022-09-11T20:35:23.190Z,97617.84
2022-09-11T20:37:50.728Z,97619.06
2022-09-11T20:40:17.244Z,97621.34
2022-09-11T20:42:43.765Z,97621.28
2022-09-11T20:45:10.278Z,97620.59
2022-09-11T20:47:36.745Z,97620.34
2022-09-11T20:50:03.508Z,97624.09
2022-09-11T20:52:30.967Z,97626.59
2022-09-11T20:54:57.706Z,97623.31
2022-09-11T20:57:24.135Z,97620.84
2022-09-11T20:59:50.610Z,97620.41
2022-09-11T21:02:17.611Z,97622.94
2022-09-11T21:04:44.214Z,97616.19
2022-09-11T21:07:11.154Z,97615.34
2022-09-11T21:09:37.950Z,97619.50
2022-09-11T21:12:04.492Z,97621.09
2022-09-11T21:14:31.012Z,97622.94
2022-09-11T21:16:57.452Z,97624.06
2022-09-11T21:19:23.983Z,97621.78
2022-09-11T21:21:50.600Z,97625.53
2022-09-11T21:24:17.012Z,97618.16
2022-09-11T21:26:43.597Z,97622.19
2022-09-11T21:29:12.453Z,97623.88
2022-09-11T21:31:38.970Z,97624.25
2022-09-11T21:34:05.506Z,97613.13
2022-09-11T21:36:33.421Z,97623.72
2022-09-11T21:38:59.909Z,97621.00
2022-09-11T21:41:26.317Z,97634.50
2022-09-11T21:43:52.725Z,97622.31
2022-09-11T21:46:19.259Z,97624.34
2022-09-11T21:48:45.697Z,97621.78
2022-09-11T21:51:16.437Z,97633.59
2022-09-11T21:53:44.703Z,97636.41
2022-09-11T21:56:24.784Z,97645.75
2022-09-11T21:58:51.795Z,97649.47
2022-09-11T22:01:19.947Z,97640.94
2022-09-11T22:03:46.601Z,97648.69
2022-09-11T22:06:13.611Z,97649.91
2022-09-11T22:08:41.167Z,97655.16
2022-09-11T22:11:07.634Z,97650.00
2022-09-11T22:13:35.447Z,97649.63
2022-09-11T22:16:06.117Z,97651.66
2022-09-11T22:18:33.666Z,97654.19
2022-09-11T22:21:03.054Z,97662.47
2022-09-11T22:23:30.192Z,97655.53
2022-09-11T22:26:05.431Z,97646.75
2022-09-11T22:28:31.919Z,97659.38
2022-09-11T22:30:58.440Z,97663.78
2022-09-11T22:33:25.332Z,97658.34
2022-09-11T22:35:51.819Z,97662.09
2022-09-11T22:38:18.491Z,97653.28
2022-09-11T22:40:44.970Z,97655.72
2022-09-11T22:43:11.487Z,97653.75
2022-09-11T22:45:37.968Z,97654.50
2022-09-11T22:48:04.842Z,97648.34
2022-09-11T22:50:31.269Z,97646.66
2022-09-11T22:52:57.699Z,97646.66
2022-09-11T22:55:24.143Z,97657.78
2022-09-11T22:57:50.803Z,97656.19
2022-09-11T23:00:18.941Z,97671.59
2022-09-11T23:02:45.578Z,97664.19
2022-09-11T23:05:30.714Z,97670.63
2022-09-11T23:07:57.161Z,97670.13
2022-09-11T23:10:23.731Z,97674.00
2022-09-11T23:12:51.514Z,97672.91
2022-09-11T23:15:18.061Z,97677.16
2022-09-11T23:17:44.806Z,97669.56
2022-09-11T23:20:11.624Z,97673.75
2022-09-11T23:22:38.310Z,97670.38
2022-09-11T23:25:05.435Z,97672.91
2022-09-11T23:27:32.852Z,97666.75
2022-09-11T23:29:59.331Z,97674.66
2022-09-11T23:32:25.799Z,97673.19
2022-09-11T23:34:52.239Z,97675.88
2022-09-11T23:37:18.654Z,97675.31
2022-09-11T23:39:45.520Z,97670.03
2022-09-11T23:42:12.003Z,97673.75
2022-09-11T23:44:38.498Z,97670.13
2022-09-11T23:47:04.991Z,97672.44
2022-09-11T23:49:36.023Z,97673.69
2022-09-11T23:52:03.243Z,97667.25
2022-09-11T23:54:29.666Z,97664.19
2022-09-11T23:56:56.295Z,97662.22
2022-09-11T23:59:22.739Z,97652.00
